Time;durP1;ratioP1;P1;durP2;ratioP2;P2;SDS_P1;SDS_P2;PMS_P1;PMS_P2;Temp;Humidity;BMP_temperature;BMP_pressure;BME280_temperature;BME280_humidity;BME280_pressure;Samples;Min_cycle;Max_cycle;Signal;HPM_P1;HPM_P2
2023/08/21 00:04:38;;;;;;;0.65;0.60;;;;;;;20.25;92.60;102036.00;21155246;28;20093;-66
2023/08/21 00:14:39;;;;;;;2.45;1.00;;;;;;;20.19;92.28;102023.84;21154497;28;20059;-66
2023/08/21 00:24:41;;;;;;;0.98;0.65;;;;;;;20.21;92.22;102037.22;21152785;28;20059;-66
2023/08/21 00:34:43;;;;;;;1.35;0.70;;;;;;;20.18;91.28;102026.66;21162923;28;20339;-66
2023/08/21 00:44:45;;;;;;;1.40;0.90;;;;;;;20.14;91.11;102037.72;21167764;28;20142;-66
2023/08/21 00:54:47;;;;;;;1.52;1.05;;;;;;;20.11;90.92;102032.56;21167009;28;20084;-65
2023/08/21 01:04:49;;;;;;;1.85;0.88;;;;;;;20.10;90.78;102041.66;21166284;28;20060;-66
2023/08/21 01:15:03;;;;;;;1.60;1.02;;;;;;;20.07;90.19;102036.50;21165385;28;20046;-66
2023/08/21 01:25:05;;;;;;;1.17;0.57;;;;;;;20.04;90.32;102042.16;21145715;28;20055;-66
2023/08/21 01:35:09;;;;;;;1.52;0.77;;;;;;;20.02;89.76;102049.53;21144956;28;20108;-66
2023/08/21 01:45:11;;;;;;;0.95;0.60;;;;;;;20.00;89.85;102041.53;21161357;28;20060;-66
2023/08/21 01:55:13;;;;;;;0.68;0.60;;;;;;;20.00;89.75;102040.69;21161251;28;20113;-66
2023/08/21 02:05:15;;;;;;;1.35;0.70;;;;;;;19.97;89.41;102046.34;21160190;28;20059;-66
2023/08/21 02:15:16;;;;;;;1.70;0.50;;;;;;;19.96;89.20;102044.63;21160342;28;20482;-66
2023/08/21 02:25:18;;;;;;;0.75;0.52;;;;;;;19.95;89.14;102042.91;21141356;28;20055;-65
2023/08/21 02:35:21;;;;;;;0.90;0.65;;;;;;;19.94;88.76;102043.88;21158440;28;20050;-66
2023/08/21 02:45:24;;;;;;;1.75;0.50;;;;;;;19.92;88.20;102053.94;21157560;28;20066;-66
2023/08/21 02:55:26;;;;;;;0.60;0.50;;;;;;;19.91;87.92;102050.38;21156561;27;20044;-65
2023/08/21 03:05:28;;;;;;;0.70;0.70;;;;;;;19.90;87.74;102042.38;21154660;27;20407;-66
2023/08/21 03:15:29;;;;;;;0.55;0.50;;;;;;;19.87;87.68;102051.56;21184924;27;20046;-65
2023/08/21 03:25:31;;;;;;;0.60;0.60;;;;;;;19.87;87.97;102040.75;21186109;27;20417;-66
2023/08/21 03:35:33;;;;;;;0.40;0.40;;;;;;;19.84;88.01;102022.94;21169710;28;20047;-66
2023/08/21 03:45:36;;;;;;;1.55;0.57;;;;;;;19.83;87.84;102023.91;21221623;27;20059;-66
2023/08/21 03:55:40;;;;;;;0.90;0.50;;;;;;;19.82;87.83;102024.91;21164949;28;20681;-66
2023/08/21 04:05:43;;;;;;;1.25;0.60;;;;;;;19.81;87.76;102020.47;21140131;28;20059;-66
2023/08/21 04:15:45;;;;;;;1.60;0.50;;;;;;;19.78;87.38;102028.00;21152634;28;20061;-66
2023/08/21 04:25:47;;;;;;;1.67;0.45;;;;;;;19.76;87.17;102036.19;21151604;28;20054;-66
2023/08/21 04:35:49;;;;;;;0.93;0.50;;;;;;;19.77;87.26;102037.91;21100654;27;20514;-65
2023/08/21 04:45:54;;;;;;;1.27;0.47;;;;;;;19.82;87.45;102041.13;21143712;27;20303;-65
2023/08/21 04:56:00;;;;;;;0.80;0.70;;;;;;;19.88;87.29;102036.19;21173130;27;20077;-63
2023/08/21 05:06:03;;;;;;;0.37;0.37;;;;;;;19.92;87.16;102043.16;21170099;27;20121;-65
2023/08/21 05:16:05;;;;;;;1.55;0.40;;;;;;;19.93;87.01;102037.59;21158604;27;20107;-65
2023/08/21 05:26:10;;;;;;;0.40;0.40;;;;;;;19.95;86.74;102038.34;21181105;27;20102;-64
2023/08/21 05:36:12;;;;;;;0.40;0.40;;;;;;;19.99;86.61;102049.78;21159908;27;20047;-65
2023/08/21 05:46:14;;;;;;;1.27;0.70;;;;;;;20.01;86.30;102053.22;21147338;27;20052;-65
2023/08/21 05:56:16;;;;;;;1.05;0.32;;;;;;;20.02;86.78;102060.34;21140427;28;20514;-64
2023/08/21 06:06:18;;;;;;;1.00;0.40;;;;;;;20.03;86.78;102067.47;21192398;27;20051;-65
2023/08/21 06:16:20;;;;;;;0.80;0.60;;;;;;;20.03;87.07;102070.16;21203635;27;20277;-65
2023/08/21 06:26:23;;;;;;;1.23;0.30;;;;;;;20.02;88.25;102086.50;21174870;27;20054;-66
2023/08/21 06:36:25;;;;;;;2.78;0.70;;;;;;;20.03;89.56;102077.41;21163725;27;20113;-66
2023/08/21 06:46:27;;;;;;;3.15;0.80;;;;;;;20.04;90.44;102073.72;21189976;27;20461;-66
2023/08/21 06:56:29;;;;;;;1.48;0.70;;;;;;;20.06;91.21;102080.72;21169814;27;20583;-65
2023/08/21 07:06:31;;;;;;;2.80;0.70;;;;;;;20.12;92.15;102072.13;21157596;27;20047;-65
2023/08/21 07:16:33;;;;;;;1.30;0.50;;;;;;;20.20;92.22;102063.41;21192016;27;20043;-65
2023/08/21 07:26:34;;;;;;;1.65;0.63;;;;;;;20.28;92.29;102065.47;21202355;27;20396;-65
2023/08/21 07:36:36;;;;;;;0.95;0.68;;;;;;;20.39;92.06;102067.31;21154953;28;20376;-65
2023/08/21 07:46:38;;;;;;;1.92;0.50;;;;;;;20.45;92.68;102063.28;21160830;27;20152;-69
2023/08/21 07:56:40;;;;;;;6.53;0.93;;;;;;;20.53;92.57;102072.47;21184580;27;20050;-70
2023/08/21 08:06:42;;;;;;;0.60;0.45;;;;;;;20.64;92.51;102068.88;21176537;27;20071;-69
2023/08/21 08:16:44;;;;;;;2.13;0.70;;;;;;;20.78;92.29;102069.63;21172288;27;20052;-69
2023/08/21 08:26:46;;;;;;;1.92;0.82;;;;;;;20.92;92.14;102063.94;21146854;27;20062;-69
2023/08/21 08:36:47;;;;;;;2.03;0.73;;;;;;;21.05;91.78;102071.91;21168557;27;20109;-68
2023/08/21 08:46:50;;;;;;;2.53;0.60;;;;;;;21.14;91.32;102075.66;21156632;27;20055;-69
2023/08/21 08:56:51;;;;;;;1.17;0.80;;;;;;;21.21;90.72;102068.75;21129436;27;20052;-68
2023/08/21 09:07:09;;;;;;;2.35;0.80;;;;;;;21.26;90.13;102071.94;21143849;27;20048;-68
2023/08/21 09:17:11;;;;;;;1.20;0.65;;;;;;;21.30;89.77;102076.09;21192545;27;20064;-69
2023/08/21 09:27:15;;;;;;;1.00;0.60;;;;;;;21.35;89.57;102074.84;21162832;27;20063;-69
2023/08/21 09:37:18;;;;;;;1.55;0.80;;;;;;;21.37;89.21;102078.28;21177643;27;20118;-69
2023/08/21 09:47:20;;;;;;;1.13;0.60;;;;;;;21.40;89.25;102067.16;21182055;27;20066;-68
2023/08/21 09:57:22;;;;;;;1.08;0.60;;;;;;;21.42;89.28;102073.31;21122873;27;20492;-69
2023/08/21 10:07:26;;;;;;;0.95;0.70;;;;;;;21.44;89.10;102077.63;21154263;28;20533;-69
2023/08/21 10:17:28;;;;;;;0.87;0.60;;;;;;;21.45;88.74;102064.94;21139228;27;20054;-69
2023/08/21 10:27:30;;;;;;;1.27;0.60;;;;;;;21.44;88.66;102064.09;21143093;27;20048;-69
2023/08/21 10:37:32;;;;;;;1.50;0.73;;;;;;;21.44;88.46;102064.09;21122865;28;20051;-69
2023/08/21 10:47:35;;;;;;;1.27;0.60;;;;;;;21.45;88.27;102048.66;21154245;27;20055;-69
2023/08/21 10:57:38;;;;;;;0.97;0.70;;;;;;;21.45;88.29;102043.25;21156455;27;20039;-69
2023/08/21 11:07:47;;;;;;;1.15;0.90;;;;;;;21.46;87.99;102060.38;21156358;28;20047;-69
2023/08/21 11:18:07;;;;;;;1.25;0.85;;;;;;;21.46;87.72;102063.94;21203212;27;20410;-69
2023/08/21 11:28:09;;;;;;;1.92;0.70;;;;;;;21.46;87.81;102055.81;21182856;28;20379;-68
2023/08/21 11:38:21;;;;;;;1.25;0.70;;;;;;;21.48;87.72;102059.25;21154491;28;20057;-68
2023/08/21 11:48:23;;;;;;;1.40;1.00;;;;;;;21.50;87.95;102051.84;21136030;28;20085;-68
2023/08/21 11:58:28;;;;;;;0.93;0.57;;;;;;;21.52;87.80;102051.72;21163198;27;20050;-69
2023/08/21 12:08:30;;;;;;;1.83;0.90;;;;;;;21.53;87.51;102039.88;21160929;28;20527;-69
2023/08/21 12:18:32;;;;;;;0.85;0.65;;;;;;;21.52;87.43;102027.34;21149378;28;20039;-68
2023/08/21 12:28:33;;;;;;;2.38;0.60;;;;;;;21.51;87.09;102015.63;21144695;27;20522;-68
2023/08/21 12:38:35;;;;;;;1.42;0.60;;;;;;;21.52;87.10;102016.50;21171443;27;20059;-67
2023/08/21 12:48:37;;;;;;;2.13;0.63;;;;;;;21.50;87.17;102018.47;21147800;27;20081;-68
2023/08/21 12:58:39;;;;;;;0.57;0.57;;;;;;;21.49;86.93;102014.91;21162976;27;20054;-68
2023/08/21 13:08:41;;;;;;;1.42;0.80;;;;;;;21.46;86.68;102006.19;21173473;27;20078;-68
2023/08/21 13:18:43;;;;;;;2.72;0.80;;;;;;;21.49;86.47;102011.34;21172784;27;20062;-69
2023/08/21 13:28:44;;;;;;;1.35;0.80;;;;;;;21.44;86.87;102009.03;21170176;27;20059;-68
2023/08/21 13:38:46;;;;;;;1.63;0.70;;;;;;;21.36;86.90;101990.72;21175041;27;20052;-68
2023/08/21 13:48:48;;;;;;;1.02;0.70;;;;;;;21.45;87.03;101989.06;21189431;27;20055;-70
2023/08/21 13:58:50;;;;;;;2.92;0.75;;;;;;;21.44;87.08;101977.38;21178816;27;20158;-70
2023/08/21 14:08:52;;;;;;;1.30;0.70;;;;;;;21.41;87.56;101974.06;21162095;27;20043;-68
2023/08/21 14:18:53;;;;;;;1.98;0.98;;;;;;;21.38;87.45;101966.22;21181457;27;20039;-69
2023/08/21 14:28:55;;;;;;;1.25;0.77;;;;;;;21.39;87.91;101957.09;21179748;27;20062;-70
2023/08/21 14:38:57;;;;;;;4.38;1.20;;;;;;;21.41;87.25;101965.94;21184186;27;20688;-65
2023/08/21 14:48:59;;;;;;;2.22;0.98;;;;;;;21.44;87.40;101955.72;21180120;27;20092;-65
2023/08/21 14:59:01;;;;;;;2.42;0.68;;;;;;;21.45;87.08;101945.72;21173525;27;20501;-64
2023/08/21 15:09:05;;;;;;;2.38;1.25;;;;;;;21.47;87.16;101927.47;21172040;27;20051;-66
2023/08/21 15:19:07;;;;;;;1.27;0.70;;;;;;;21.50;87.98;101929.06;21147991;27;20047;-65
2023/08/21 15:29:09;;;;;;;4.82;0.80;;;;;;;21.49;88.92;101920.06;21166668;28;20043;-64
2023/08/21 15:39:11;;;;;;;8.43;4.85;;;;;;;21.54;93.03;101915.09;21163399;27;20108;-66
2023/08/21 15:49:13;;;;;;;2.97;1.00;;;;;;;21.61;92.60;101912.72;21176414;28;20136;-66
2023/08/21 15:59:15;;;;;;;1.67;0.82;;;;;;;21.63;92.09;101909.84;21175320;27;20048;-65
2023/08/21 16:09:20;;;;;;;1.45;0.70;;;;;;;21.62;91.40;101905.44;21211704;27;20495;-65
2023/08/21 16:19:22;;;;;;;2.20;0.82;;;;;;;21.54;91.20;101892.59;21181424;27;20054;-65
2023/08/21 16:29:24;;;;;;;2.83;0.88;;;;;;;21.56;90.80;101899.56;21191642;27;20058;-65
2023/08/21 16:39:25;;;;;;;2.45;1.00;;;;;;;21.55;91.35;101888.88;21164964;27;20535;-66
2023/08/21 16:49:27;;;;;;;3.63;1.23;;;;;;;21.52;90.78;101884.59;21162484;27;20052;-65
2023/08/21 16:59:29;;;;;;;0.85;0.70;;;;;;;21.50;90.86;101885.72;21173982;27;20129;-66
2023/08/21 17:09:31;;;;;;;1.27;0.75;;;;;;;21.49;90.62;101881.31;21162409;27;20419;-65
2023/08/21 17:19:33;;;;;;;3.33;0.98;;;;;;;21.46;90.25;101866.16;21165427;27;20051;-65
2023/08/21 17:29:35;;;;;;;1.20;0.63;;;;;;;21.45;90.49;101869.88;21150164;27;20043;-65
2023/08/21 17:39:37;;;;;;;3.70;0.90;;;;;;;21.38;90.38;101868.72;21174999;27;20057;-66
2023/08/21 17:49:39;;;;;;;1.95;0.90;;;;;;;21.32;90.46;101861.13;21175394;27;20663;-65
2023/08/21 17:59:41;;;;;;;3.35;1.00;;;;;;;21.30;90.55;101863.97;21162198;28;20060;-65
2023/08/21 18:09:43;;;;;;;1.95;0.70;;;;;;;21.24;90.29;101876.22;21161612;27;20051;-65
2023/08/21 18:19:45;;;;;;;2.28;0.80;;;;;;;21.19;90.71;101864.91;21160900;28;20047;-65
2023/08/21 18:29:51;;;;;;;1.65;0.60;;;;;;;21.17;90.77;101860.63;21158334;28;20138;-65
2023/08/21 18:39:53;;;;;;;2.47;1.00;;;;;;;21.13;91.44;101860.03;21159427;28;20055;-65
2023/08/21 18:49:55;;;;;;;2.05;1.00;;;;;;;21.09;91.98;101864.88;21158825;28;20043;-65
2023/08/21 18:59:56;;;;;;;2.80;0.88;;;;;;;21.08;92.51;101883.94;21157099;28;20063;-65
2023/08/21 19:09:58;;;;;;;1.63;0.73;;;;;;;21.05;92.64;101886.91;21157476;28;20055;-65
2023/08/21 19:20:00;;;;;;;2.22;1.10;;;;;;;21.01;93.00;101903.44;21156742;28;20044;-65
2023/08/21 19:30:20;;;;;;;2.65;1.08;;;;;;;20.99;93.20;101910.81;21158919;28;20110;-65
2023/08/21 19:40:43;;;;;;;2.45;1.15;;;;;;;20.95;93.38;101887.72;21171051;28;20415;-66
2023/08/21 19:50:45;;;;;;;2.13;0.80;;;;;;;20.94;93.66;101886.00;21243711;27;20058;-65
2023/08/21 20:00:47;;;;;;;3.88;1.52;;;;;;;20.90;95.25;101889.97;21153142;28;20507;-66
2023/08/21 20:10:48;;;;;;;3.08;1.48;;;;;;;20.92;96.50;101906.06;21171163;28;20055;-65
2023/08/21 20:20:50;;;;;;;2.50;1.33;;;;;;;20.90;96.68;101906.22;21198893;27;20120;-65
2023/08/21 20:30:59;;;;;;;2.95;1.65;;;;;;;20.87;96.95;101895.66;21215973;27;20050;-65
2023/08/21 20:41:03;;;;;;;3.33;1.75;;;;;;;20.85;97.87;101901.19;21235290;27;20055;-65
2023/08/21 20:51:05;;;;;;;3.50;1.47;;;;;;;20.82;97.60;101906.03;21217711;27;20047;-65
2023/08/21 21:01:07;;;;;;;2.92;1.35;;;;;;;20.80;97.73;101879.06;21225777;27;20051;-65
2023/08/21 21:11:08;;;;;;;3.05;1.13;;;;;;;20.78;97.65;101889.13;21213409;27;20039;-66
2023/08/21 21:21:10;;;;;;;2.42;1.17;;;;;;;20.78;97.62;101896.41;21178702;27;20055;-65
2023/08/21 21:31:12;;;;;;;2.30;1.20;;;;;;;20.77;97.54;101886.56;21171795;27;20457;-65
2023/08/21 21:41:14;;;;;;;1.60;1.20;;;;;;;20.77;97.51;101881.13;21215632;27;20065;-65
2023/08/21 21:51:16;;;;;;;1.90;1.00;;;;;;;20.75;97.37;101881.28;21225047;27;20760;-66
2023/08/21 22:01:17;;;;;;;2.67;1.30;;;;;;;20.75;97.22;101877.72;21149841;27;20058;-65
2023/08/21 22:11:19;;;;;;;1.30;0.95;;;;;;;20.75;97.04;101880.41;21193045;27;20053;-65
2023/08/21 22:21:21;;;;;;;2.05;1.10;;;;;;;20.72;96.82;101851.78;21217507;27;20603;-65
2023/08/21 22:31:23;;;;;;;1.55;1.05;;;;;;;20.72;96.80;101858.03;21224188;27;20042;-66
2023/08/21 22:41:43;;;;;;;1.30;1.05;;;;;;;20.66;96.94;101853.16;21229590;27;20566;-65
2023/08/21 22:51:45;;;;;;;1.40;1.10;;;;;;;20.65;96.69;101843.31;21227103;27;20051;-65
2023/08/21 23:01:46;;;;;;;2.38;1.20;;;;;;;20.62;96.67;101845.47;21226291;27;20057;-65
2023/08/21 23:11:48;;;;;;;2.83;1.13;;;;;;;20.60;96.60;101850.13;21219998;27;20052;-65
2023/08/21 23:21:50;;;;;;;1.20;1.10;;;;;;;20.57;96.39;101851.25;21174412;27;20047;-65
2023/08/21 23:31:52;;;;;;;2.25;1.25;;;;;;;20.56;96.34;101846.81;21179338;28;20096;-66
2023/08/21 23:41:53;;;;;;;1.35;1.00;;;;;;;20.54;96.16;101832.56;21218872;27;20079;-65
2023/08/21 23:51:55;;;;;;;1.60;1.50;;;;;;;20.52;96.08;101824.56;21206940;28;20039;-65
